Time;durP1;ratioP1;P1;durP2;ratioP2;P2;SDS_P1;SDS_P2;PMS_P1;PMS_P2;Temp;Humidity;BMP_temperature;BMP_pressure;BME280_temperature;BME280_humidity;BME280_pressure;Samples;Min_cycle;Max_cycle;Signal;HPM_P1;HPM_P2
2022/01/22 00:01:49;;;;;;;13.07;5.68;;;;;;;4.39;84.03;103261.09;5014693;28;20049;-66
2022/01/22 00:04:17;;;;;;;14.65;5.18;;;;;;;4.38;83.94;103260.19;5009761;28;20075;-66
2022/01/22 00:06:44;;;;;;;18.10;5.40;;;;;;;4.34;84.11;103264.41;5006860;28;20113;-67
2022/01/22 00:09:11;;;;;;;13.23;5.20;;;;;;;4.33;84.11;103260.03;5007835;28;20077;-65
2022/01/22 00:11:49;;;;;;;13.57;5.32;;;;;;;4.32;84.21;103260.84;5013183;28;20030;-66
2022/01/22 00:14:23;;;;;;;13.15;5.50;;;;;;;4.33;84.23;103261.75;5014757;28;20503;-66
2022/01/22 00:16:57;;;;;;;15.27;5.73;;;;;;;4.31;84.46;103255.59;5010893;28;20109;-66
2022/01/22 00:19:25;;;;;;;;;;;;;;;4.29;84.50;103263.38;5009750;28;20552;-66
2022/01/22 00:21:54;;;;;;;15.70;4.95;;;;;;;4.30;84.55;103257.31;5013656;28;19926;-67
2022/01/22 00:24:21;;;;;;;17.35;5.55;;;;;;;4.28;84.38;103256.38;5031015;28;20046;-68
2022/01/22 00:26:49;;;;;;;18.50;5.15;;;;;;;4.32;84.55;103245.19;5015227;28;20042;-68
2022/01/22 00:29:16;;;;;;;23.70;5.60;;;;;;;4.31;84.38;103251.28;5003313;28;20046;-68
2022/01/22 00:31:44;;;;;;;17.83;6.00;;;;;;;4.34;84.44;103253.97;5013391;28;20153;-69
2022/01/22 00:34:12;;;;;;;13.48;5.50;;;;;;;4.35;84.40;103254.88;5014010;28;20043;-68
2022/01/22 00:36:40;;;;;;;15.35;5.72;;;;;;;4.35;84.43;103255.75;5012394;28;20160;-67
2022/01/22 00:39:08;;;;;;;11.30;5.15;;;;;;;4.35;84.48;103241.81;5022283;28;20050;-68
2022/01/22 00:41:35;;;;;;;12.65;6.03;;;;;;;4.38;84.61;103246.25;5014718;28;20104;-68
2022/01/22 00:44:04;;;;;;;15.27;5.88;;;;;;;4.37;84.53;103240.16;5003603;28;20399;-66
2022/01/22 00:46:32;;;;;;;18.02;5.78;;;;;;;4.40;84.40;103234.13;5011098;28;20869;-68
2022/01/22 00:49:00;;;;;;;10.82;5.25;;;;;;;4.39;84.39;103241.06;5004864;28;20089;-67
2022/01/22 00:51:27;;;;;;;9.70;5.13;;;;;;;4.41;84.19;103236.78;5011709;28;20049;-67
2022/01/22 00:53:54;;;;;;;18.00;5.47;;;;;;;4.40;84.19;103236.75;5030275;28;20047;-66
2022/01/22 00:56:22;;;;;;;17.45;5.68;;;;;;;4.40;84.22;103236.75;5015103;28;21913;-66
2022/01/22 00:58:49;;;;;;;17.38;6.28;;;;;;;4.40;84.25;103239.34;5028416;28;20042;-70
2022/01/22 01:01:16;;;;;;;9.48;5.20;;;;;;;4.38;84.26;103241.03;5010675;28;20502;-66
2022/01/22 01:03:44;;;;;;;13.32;5.70;;;;;;;4.37;84.58;103245.38;5009171;28;20778;-69
2022/01/22 01:06:11;;;;;;;16.73;5.97;;;;;;;4.37;84.65;103244.47;5017345;28;20532;-69
2022/01/22 01:08:38;;;;;;;18.50;6.22;;;;;;;4.37;84.74;103247.06;5026288;28;20043;-69
2022/01/22 01:11:07;;;;;;;14.73;6.38;;;;;;;4.39;84.90;103243.66;5006308;28;20047;-68
2022/01/22 01:13:41;;;;;;;18.80;6.20;;;;;;;4.40;84.86;103236.75;5012482;28;20441;-68
2022/01/22 01:16:22;;;;;;;22.08;6.65;;;;;;;4.39;85.03;103242.78;5010067;28;20053;-68
2022/01/22 01:35:23;;;;;;;19.15;7.32;;;;;;;4.37;85.28;103247.06;5022552;28;20078;-69
2022/01/22 01:37:52;;;;;;;15.70;6.68;;;;;;;4.35;85.25;103245.28;5013291;28;20039;-69
2022/01/22 01:40:22;;;;;;;15.75;6.88;;;;;;;4.35;85.38;103239.19;5005557;28;20058;-70
2022/01/22 01:43:04;;;;;;;19.48;7.63;;;;;;;4.33;85.29;103243.47;5011466;28;20042;-69
2022/01/22 01:45:31;;;;;;;14.85;6.78;;;;;;;4.33;85.55;103248.69;5014469;28;20138;-69
2022/01/22 01:48:06;;;;;;;17.40;6.97;;;;;;;4.31;85.48;103243.44;5011573;28;20457;-69
2022/01/22 01:50:37;;;;;;;16.75;6.65;;;;;;;4.30;85.47;103249.50;5025360;28;20042;-69
2022/01/22 01:56:03;;;;;;;16.35;7.60;;;;;;;4.29;85.53;103244.19;5014813;28;20042;-66
2022/01/22 01:58:30;;;;;;;18.40;7.10;;;;;;;4.31;85.64;103247.75;5028966;28;20074;-65
2022/01/22 02:01:03;;;;;;;18.90;7.60;;;;;;;4.32;85.63;103253.03;4994442;28;20042;-69
2022/01/22 02:03:35;;;;;;;18.52;8.43;;;;;;;4.31;85.53;103246.03;5014849;28;20121;-67
2022/01/22 02:06:11;;;;;;;16.05;7.60;;;;;;;4.34;85.60;103242.66;5003760;28;20898;-67
2022/01/22 02:08:39;;;;;;;17.65;7.60;;;;;;;4.34;85.81;103246.13;5012031;28;20064;-67
2022/01/22 02:11:14;;;;;;;19.70;7.97;;;;;;;4.35;85.70;103245.28;5008375;28;20062;-68
2022/01/22 02:25:32;;;;;;;24.58;9.52;;;;;;;4.37;85.92;103240.16;5021934;28;20043;-69
2022/01/22 02:28:01;;;;;;;20.33;8.90;;;;;;;4.37;86.07;103244.47;5017580;28;20046;-67
2022/01/22 02:30:34;;;;;;;24.42;9.73;;;;;;;4.41;85.84;103243.75;5022086;28;20121;-68
2022/01/22 02:33:25;;;;;;;19.40;9.15;;;;;;;4.42;86.04;103248.13;5012436;28;20053;-67
2022/01/22 02:36:01;;;;;;;21.25;10.25;;;;;;;4.43;86.04;103256.00;5017444;28;20050;-67
2022/01/22 02:38:46;;;;;;;23.88;10.43;;;;;;;4.43;86.15;103244.66;5027863;28;20054;-67
2022/01/22 02:41:18;;;;;;;22.13;10.48;;;;;;;4.44;85.95;103241.22;5009708;28;20042;-67
2022/01/22 02:43:47;;;;;;;24.33;10.80;;;;;;;4.46;86.24;103242.16;5032163;28;20051;-67
2022/01/22 02:46:19;;;;;;;25.42;11.45;;;;;;;4.47;86.31;103242.22;5019924;28;20046;-67
2022/01/22 02:48:46;;;;;;;23.10;10.70;;;;;;;4.48;86.25;103243.97;5009828;28;20094;-67
2022/01/22 02:51:13;;;;;;;18.00;10.90;;;;;;;4.48;86.31;103237.88;5024714;28;20465;-70
2022/01/22 02:53:41;;;;;;;22.95;11.02;;;;;;;4.49;86.21;103245.75;5008329;28;20830;-69
2022/01/22 02:56:09;;;;;;;23.55;11.32;;;;;;;4.51;86.23;103238.88;5014957;28;20117;-70
2022/01/22 02:58:36;;;;;;;21.38;10.43;;;;;;;4.50;86.18;103242.31;5014481;28;20117;-68
2022/01/22 03:01:04;;;;;;;19.90;10.82;;;;;;;4.53;86.25;103245.88;5029443;28;20086;-67
2022/01/22 03:03:31;;;;;;;16.95;11.25;;;;;;;4.51;86.30;103244.09;5011651;28;20142;-69
2022/01/22 03:06:01;;;;;;;22.88;12.02;;;;;;;4.51;86.03;103241.47;5029288;28;20101;-68
2022/01/22 03:08:29;;;;;;;25.77;11.52;;;;;;;4.53;86.36;103251.09;5003866;28;20047;-68
2022/01/22 03:10:56;;;;;;;23.80;12.05;;;;;;;4.52;86.42;103247.63;5016682;28;20440;-68
2022/01/22 03:14:08;;;;;;;25.08;12.32;;;;;;;4.51;86.23;103238.00;5008435;28;20046;-68
2022/01/22 03:21:15;;;;;;;29.67;11.85;;;;;;;4.51;86.42;103251.06;5015399;28;20089;-65
2022/01/22 03:29:18;;;;;;;21.75;11.82;;;;;;;4.51;86.64;103248.44;5015610;28;20039;-69
2022/01/22 03:31:47;;;;;;;24.00;12.85;;;;;;;4.54;86.48;103251.13;5008038;28;20038;-70
2022/01/22 03:34:14;;;;;;;29.13;12.38;;;;;;;4.56;86.51;103253.81;5014346;28;20057;-68
2022/01/22 03:36:41;;;;;;;24.98;11.70;;;;;;;4.56;86.63;103254.69;5013342;28;20055;-67
2022/01/22 03:39:10;;;;;;;24.63;11.85;;;;;;;4.56;86.58;103249.47;5013620;28;20058;-67
2022/01/22 03:41:39;;;;;;;27.10;12.15;;;;;;;4.56;86.61;103240.75;5018821;28;20105;-69
2022/01/22 03:44:08;;;;;;;23.00;11.50;;;;;;;4.57;86.62;103251.25;5010374;28;20125;-68
2022/01/22 03:46:38;;;;;;;22.17;11.98;;;;;;;4.57;86.67;103250.38;5013247;28;20158;-69
2022/01/22 03:49:05;;;;;;;24.30;12.02;;;;;;;4.58;86.66;103247.81;5003437;28;20042;-70
2022/01/22 03:51:32;;;;;;;27.02;12.95;;;;;;;4.61;86.48;103255.75;5013094;28;20042;-68
2022/01/22 03:53:59;;;;;;;24.33;12.63;;;;;;;4.62;86.59;103246.16;5001571;28;20533;-67
2022/01/22 03:56:27;;;;;;;27.77;11.77;;;;;;;4.62;86.66;103261.84;5008876;28;20552;-66
2022/01/22 03:59:08;;;;;;;22.35;12.20;;;;;;;4.63;86.73;103263.63;5024430;28;20857;-66
2022/01/22 04:04:54;;;;;;;26.60;12.95;;;;;;;4.64;86.60;103252.34;5030072;28;20038;-69
2022/01/22 04:08:05;;;;;;;23.27;12.23;;;;;;;4.65;86.62;103249.78;5012193;28;20507;-68
2022/01/22 04:10:24;;;;;;;22.85;11.98;;;;;;;4.65;86.67;103255.00;5005037;28;20053;-68
2022/01/22 04:15:25;;;;;;;28.92;12.30;;;;;;;4.71;86.55;103256.06;5011703;28;20045;-69
2022/01/22 04:26:56;;;;;;;23.50;12.02;;;;;;;4.71;86.58;103256.06;5012023;28;20121;-67
2022/01/22 04:29:00;;;;;;;29.95;11.82;;;;;;;4.70;86.67;103260.38;5016841;28;20081;-69
2022/01/22 04:31:28;;;;;;;24.98;11.23;;;;;;;4.72;86.67;103253.47;5020870;28;20038;-69
2022/01/22 04:33:55;;;;;;;20.50;10.98;;;;;;;4.74;86.63;103251.81;5012080;28;20046;-68
2022/01/22 04:36:22;;;;;;;25.38;11.88;;;;;;;4.73;86.48;103252.66;5011003;28;20069;-69
2022/01/22 04:38:49;;;;;;;23.05;10.55;;;;;;;4.76;86.53;103263.22;5003471;28;20500;-69
2022/01/22 04:41:16;;;;;;;26.42;11.13;;;;;;;4.75;86.56;103257.91;5024676;28;20034;-69
2022/01/22 04:43:44;;;;;;;21.23;10.52;;;;;;;4.76;86.65;103262.31;5013496;28;20038;-68
2022/01/22 04:46:26;;;;;;;23.55;10.90;;;;;;;4.75;86.42;103264.03;5024535;28;20102;-68
2022/01/22 04:49:09;;;;;;;22.25;10.93;;;;;;;4.74;86.61;103262.25;5000232;28;20528;-71
2022/01/22 04:57:11;;;;;;;26.50;12.02;;;;;;;4.74;86.69;103253.53;5008300;28;20062;-69
2022/01/22 04:59:38;;;;;;;24.67;13.27;;;;;;;4.76;86.76;103255.38;5019705;28;20802;-70
2022/01/22 05:02:05;;;;;;;21.35;11.80;;;;;;;4.75;86.81;103250.06;5033407;28;20053;-69
2022/01/22 05:05:00;;;;;;;22.63;10.63;;;;;;;4.76;86.75;103254.47;5012896;28;20054;-68
2022/01/22 05:07:46;;;;;;;26.45;10.68;;;;;;;4.76;86.67;103249.22;5006205;28;20042;-68
2022/01/22 05:10:23;;;;;;;25.17;10.88;;;;;;;4.76;86.63;103254.47;5011584;28;20053;-69
2022/01/22 05:12:53;;;;;;;20.98;11.57;;;;;;;4.77;86.77;103249.31;5012195;28;20046;-68
2022/01/22 05:15:21;;;;;;;25.58;10.95;;;;;;;4.79;86.69;103249.34;5010889;28;20046;-70
2022/01/22 05:17:49;;;;;;;25.35;10.00;;;;;;;4.80;86.76;103249.38;5015912;28;20051;-70
2022/01/22 05:20:27;;;;;;;22.13;11.25;;;;;;;4.82;86.55;103245.09;5019165;28;20547;-71
2022/01/22 05:25:37;;;;;;;25.70;9.88;;;;;;;4.86;86.61;103245.22;4999440;28;20049;-68
2022/01/22 05:39:15;;;;;;;20.02;9.48;;;;;;;4.91;86.54;103241.91;5014535;28;20063;-68
2022/01/22 05:41:43;;;;;;;21.75;9.23;;;;;;;4.93;86.62;103242.84;5013393;28;20038;-71
2022/01/22 05:44:10;;;;;;;20.75;9.57;;;;;;;4.96;86.50;103248.16;5016494;28;20517;-67
2022/01/22 05:46:37;;;;;;;18.08;8.52;;;;;;;4.98;86.54;103245.59;5017377;28;20043;-68
2022/01/22 05:49:05;;;;;;;17.10;8.60;;;;;;;4.98;86.42;103248.22;5000292;28;20141;-69
2022/01/22 05:51:34;;;;;;;22.80;9.07;;;;;;;4.98;86.48;103254.31;5009008;28;20066;-67
2022/01/22 05:59:39;;;;;;;18.55;8.70;;;;;;;5.02;86.46;103267.50;5013508;28;20138;-70
2022/01/22 06:02:15;;;;;;;28.23;9.95;;;;;;;5.00;86.50;103266.56;5015048;28;20082;-70
2022/01/22 06:04:48;;;;;;;21.38;9.57;;;;;;;5.00;86.58;103263.94;5023042;28;20569;-70
2022/01/22 06:07:19;;;;;;;21.77;10.90;;;;;;;5.00;86.55;103261.31;5011214;28;20050;-69
2022/01/22 06:15:06;;;;;;;21.50;11.50;;;;;;;5.01;86.50;103253.53;5035913;28;20042;-69
2022/01/22 06:17:44;;;;;;;23.98;12.60;;;;;;;4.98;86.55;103254.31;5012729;28;20038;-70
2022/01/22 06:20:16;;;;;;;32.38;13.02;;;;;;;4.96;86.58;103257.72;5022499;28;20047;-70
2022/01/22 06:22:43;;;;;;;25.92;15.13;;;;;;;4.96;86.74;103260.34;5010585;28;20048;-68
2022/01/22 06:25:11;;;;;;;26.73;14.23;;;;;;;4.97;86.71;103260.38;5008431;28;20034;-68
2022/01/22 06:27:39;;;;;;;30.55;15.15;;;;;;;4.96;86.63;103262.97;5008586;28;20045;-69
2022/01/22 06:30:07;;;;;;;34.35;14.50;;;;;;;4.96;86.67;103262.97;5010250;28;20133;-68
2022/01/22 06:32:42;;;;;;;31.15;16.40;;;;;;;4.95;86.71;103264.66;5007595;28;20121;-66
2022/01/22 06:35:10;;;;;;;32.97;16.85;;;;;;;4.97;86.70;103275.19;5023420;28;20170;-72
2022/01/22 06:37:39;;;;;;;32.97;16.27;;;;;;;4.98;86.66;103274.38;5006171;28;20054;-67
2022/01/22 06:43:55;;;;;;;38.28;19.25;;;;;;;5.00;86.69;103288.34;5018293;28;20582;-67
2022/01/22 06:46:28;;;;;;;38.88;19.83;;;;;;;4.99;86.61;103291.78;5010422;28;20497;-66
2022/01/22 06:49:16;;;;;;;47.55;20.38;;;;;;;4.98;86.55;103290.91;5009519;28;20572;-67
2022/01/22 06:52:06;;;;;;;41.75;20.60;;;;;;;4.99;86.71;103289.19;4998520;28;20081;-68
2022/01/22 06:54:33;;;;;;;51.60;20.13;;;;;;;4.99;86.60;103291.78;5009355;28;20069;-68
2022/01/22 06:57:01;;;;;;;43.88;21.70;;;;;;;5.00;86.62;103290.09;5008472;28;20138;-67
2022/01/22 06:59:29;;;;;;;43.97;21.30;;;;;;;5.01;86.69;103290.13;5022660;28;20069;-65
2022/01/22 07:01:57;;;;;;;44.75;21.40;;;;;;;4.98;86.76;103296.16;5008982;28;20658;-69
2022/01/22 07:04:27;;;;;;;40.92;20.70;;;;;;;5.01;86.80;103302.31;5009879;28;20084;-69
2022/01/22 07:07:12;;;;;;;46.13;20.45;;;;;;;5.00;86.91;103295.31;5003455;28;21162;-69
2022/01/22 07:09:42;;;;;;;46.30;20.48;;;;;;;4.97;86.98;103299.59;5004365;28;20046;-66
2022/01/22 07:12:12;;;;;;;37.95;19.67;;;;;;;4.95;86.79;103303.00;5005903;28;20049;-65
2022/01/22 07:14:41;;;;;;;47.63;20.00;;;;;;;4.93;87.05;103300.34;5005647;28;20054;-68
2022/01/22 07:17:08;;;;;;;41.38;20.73;;;;;;;4.93;87.26;103304.69;5025845;28;20046;-69
2022/01/22 07:19:42;;;;;;;42.15;19.73;;;;;;;4.93;87.31;103304.69;5021855;28;20042;-70
2022/01/22 07:22:33;;;;;;;41.60;19.73;;;;;;;4.94;87.34;103319.53;5016813;28;20472;-70
2022/01/22 07:25:08;;;;;;;43.95;18.95;;;;;;;4.97;87.34;103324.88;5030850;28;20146;-70
2022/01/22 07:27:35;;;;;;;47.63;18.63;;;;;;;4.98;87.27;103326.66;4994403;28;20497;-70
2022/01/22 07:30:04;;;;;;;38.45;18.42;;;;;;;4.99;87.37;103328.41;5011308;28;20046;-67
2022/01/22 07:32:37;;;;;;;44.80;19.63;;;;;;;5.00;87.34;103327.56;5006058;28;20134;-68
2022/01/22 07:35:05;;;;;;;37.03;18.17;;;;;;;5.01;87.37;103328.47;5012567;28;20129;-68
2022/01/22 07:37:37;;;;;;;39.38;19.42;;;;;;;5.01;87.41;103324.13;5014681;28;20134;-69
2022/01/22 07:40:13;;;;;;;47.65;18.55;;;;;;;5.04;87.85;103331.16;5005787;28;20043;-70
2022/01/22 07:42:46;;;;;;;41.80;17.48;;;;;;;5.04;87.39;103320.69;5022330;28;20049;-69
2022/01/22 07:45:32;;;;;;;32.08;17.10;;;;;;;5.05;87.50;103323.38;5014422;28;20126;-68
2022/01/22 07:48:14;;;;;;;39.72;17.80;;;;;;;5.06;87.46;103317.31;4999821;28;20054;-72
2022/01/22 07:51:10;;;;;;;35.88;16.13;;;;;;;5.08;87.53;103315.66;5013731;28;20049;-67
2022/01/22 07:53:39;;;;;;;31.50;16.58;;;;;;;5.11;87.54;103320.97;5002646;28;20049;-68
2022/01/22 07:56:15;;;;;;;37.05;15.27;;;;;;;5.15;87.58;103321.06;5005669;28;20043;-69
2022/01/22 07:58:42;;;;;;;34.00;14.55;;;;;;;5.17;87.60;103317.66;5022183;28;20583;-69
2022/01/22 08:01:09;;;;;;;32.15;15.15;;;;;;;5.20;87.33;103317.75;4993549;28;21086;-69
2022/01/22 08:04:05;;;;;;;38.00;13.57;;;;;;;5.24;87.31;103322.22;5021057;28;20069;-70
2022/01/22 08:06:53;;;;;;;31.92;14.80;;;;;;;5.29;87.52;103322.41;5000174;28;20101;-69
2022/01/22 08:09:45;;;;;;;33.92;14.23;;;;;;;5.31;87.35;103318.09;4990065;28;20054;-68
2022/01/22 08:12:24;;;;;;;29.25;17.20;;;;;;;5.35;87.25;103324.28;5023705;28;20407;-68
2022/01/22 08:14:56;;;;;;;34.30;17.00;;;;;;;5.36;87.18;103321.75;5003087;28;20038;-68
2022/01/22 08:17:23;;;;;;;31.73;15.45;;;;;;;5.38;87.22;103322.69;5010197;28;20054;-69
2022/01/22 08:19:51;;;;;;;26.80;13.63;;;;;;;5.42;87.24;103329.78;5018728;28;20054;-69
2022/01/22 08:22:36;;;;;;;25.60;13.32;;;;;;;5.46;87.13;103322.03;5004590;28;20108;-69
2022/01/22 08:25:23;;;;;;;29.10;12.38;;;;;;;5.51;87.09;103323.94;5002722;28;20188;-70
2022/01/22 08:30:40;;;;;;;23.35;12.57;;;;;;;5.59;86.94;103326.81;5022957;28;20046;-69
2022/01/22 08:35:54;;;;;;;24.50;12.65;;;;;;;5.67;86.67;103332.25;5015045;28;20043;-69
2022/01/22 08:38:30;;;;;;;24.65;12.63;;;;;;;5.68;86.43;103331.41;5010341;28;20145;-70
2022/01/22 08:40:58;;;;;;;27.63;12.30;;;;;;;5.64;86.58;103338.28;5003697;28;20054;-69
2022/01/22 08:43:29;;;;;;;25.35;11.60;;;;;;;5.63;86.43;103336.50;5007282;28;20058;-69
2022/01/22 08:45:57;;;;;;;25.95;11.73;;;;;;;5.65;86.30;103336.53;4994351;28;20093;-68
2022/01/22 08:48:24;;;;;;;25.20;11.35;;;;;;;5.66;86.33;103343.56;5022966;28;20884;-68
2022/01/22 08:50:56;;;;;;;25.75;11.40;;;;;;;5.67;86.25;103345.34;5037604;28;20121;-68
2022/01/22 08:53:43;;;;;;;18.50;10.07;;;;;;;5.68;86.38;103345.41;5017294;28;20980;-71
2022/01/22 08:56:10;;;;;;;24.70;9.77;;;;;;;5.71;86.46;103355.06;5010284;28;20038;-71
2022/01/22 08:58:41;;;;;;;21.85;10.50;;;;;;;5.74;86.42;103358.66;5010893;28;20062;-68
2022/01/22 09:01:17;;;;;;;17.88;9.25;;;;;;;5.76;86.37;103358.69;5024276;28;20466;-71
2022/01/22 09:03:49;;;;;;;22.60;9.40;;;;;;;5.78;86.28;103364.88;5010743;28;20050;-69
2022/01/22 09:06:36;;;;;;;13.93;8.30;;;;;;;5.81;86.11;103364.97;5015089;28;20045;-70
2022/01/22 09:09:15;;;;;;;14.77;7.32;;;;;;;5.84;86.08;103362.47;5010731;28;20075;-69
2022/01/22 09:11:58;;;;;;;19.35;7.63;;;;;;;5.87;86.22;103367.75;5016022;28;20050;-69
2022/01/22 09:14:38;;;;;;;16.77;6.85;;;;;;;5.93;85.89;103374.03;5021890;28;20062;-69
2022/01/22 09:17:05;;;;;;;19.80;7.07;;;;;;;5.93;85.83;103366.19;5008261;28;20044;-69
2022/01/22 09:19:36;;;;;;;20.42;7.70;;;;;;;5.98;85.76;103370.72;5008477;28;20692;-69
2022/01/22 09:22:09;;;;;;;18.33;7.65;;;;;;;6.01;85.55;103365.59;5017869;28;20046;-69
2022/01/22 09:24:37;;;;;;;16.27;6.72;;;;;;;6.02;85.41;103366.50;5027099;28;20053;-69
2022/01/22 09:27:06;;;;;;;18.20;6.85;;;;;;;6.02;85.22;103367.38;5011476;28;20070;-68
2022/01/22 09:29:36;;;;;;;14.52;6.35;;;;;;;6.02;85.15;103366.50;5009073;28;20038;-67
2022/01/22 09:32:04;;;;;;;12.98;6.57;;;;;;;6.06;85.10;103368.34;5008416;28;20044;-68
2022/01/22 09:34:53;;;;;;;14.73;6.70;;;;;;;6.07;84.94;103372.72;5007495;28;20086;-68
2022/01/22 09:37:39;;;;;;;19.10;6.70;;;;;;;6.07;84.73;103375.34;5001574;28;20057;-69
2022/01/22 09:40:17;;;;;;;16.98;6.97;;;;;;;6.05;84.38;103379.69;5000742;28;20155;-67
2022/01/22 09:43:05;;;;;;;17.60;6.80;;;;;;;6.05;84.54;103383.19;5012426;28;20105;-66
2022/01/22 09:45:37;;;;;;;12.05;6.38;;;;;;;6.07;84.49;103388.44;5005224;28;20046;-71
2022/01/22 09:48:19;;;;;;;14.55;6.65;;;;;;;6.08;84.40;103392.84;4978002;28;20043;-70
2022/01/22 09:51:13;;;;;;;27.25;7.25;;;;;;;6.08;84.26;103395.47;4996960;28;20035;-64
2022/01/22 09:53:53;;;;;;;19.92;7.68;;;;;;;6.12;84.47;103385.97;5007712;28;20030;-66
2022/01/22 09:56:45;;;;;;;17.42;7.03;;;;;;;6.17;84.41;103392.25;5007955;28;20085;-65
2022/01/22 09:59:36;;;;;;;14.02;6.55;;;;;;;6.20;84.38;103381.84;5001739;28;20485;-66
2022/01/22 10:02:27;;;;;;;14.07;5.80;;;;;;;6.22;83.96;103388.00;5009137;28;20066;-65
2022/01/22 10:04:55;;;;;;;15.75;6.15;;;;;;;6.24;83.92;103378.47;5006263;28;20069;-66
2022/01/22 10:07:52;;;;;;;19.10;6.50;;;;;;;6.26;83.71;103378.53;4998587;28;20207;-65
2022/01/22 10:10:39;;;;;;;12.07;5.60;;;;;;;6.29;83.71;103389.06;5002703;28;20182;-65
2022/01/22 10:13:47;;;;;;;15.95;6.18;;;;;;;6.33;83.45;103393.56;5021108;28;20054;-65
2022/01/22 10:16:29;;;;;;;14.73;5.53;;;;;;;6.35;83.68;103386.66;4995087;28;20047;-70
2022/01/22 10:19:24;;;;;;;13.88;6.03;;;;;;;6.39;83.24;103390.22;4998516;28;20042;-66
2022/01/22 10:21:57;;;;;;;12.68;5.68;;;;;;;6.40;83.26;103395.50;5009428;28;20165;-67
2022/01/22 10:24:43;;;;;;;9.80;5.55;;;;;;;6.42;83.04;103393.81;5007317;28;20265;-67
2022/01/22 10:30:17;;;;;;;16.02;6.50;;;;;;;6.42;82.97;103406.94;5009492;28;20049;-66
2022/01/22 10:32:50;;;;;;;12.30;6.40;;;;;;;6.41;83.05;103401.66;5000886;28;20047;-65
2022/01/22 10:35:39;;;;;;;16.20;6.80;;;;;;;6.40;83.03;103400.75;4998719;28;20050;-67
2022/01/22 10:38:50;;;;;;;17.95;7.47;;;;;;;6.42;83.00;103414.78;5004127;28;20031;-66
2022/01/22 10:41:42;;;;;;;17.23;7.85;;;;;;;6.41;82.86;103406.91;5007493;28;20552;-66
2022/01/22 10:44:20;;;;;;;17.95;7.40;;;;;;;6.41;82.88;103406.91;5003477;28;20074;-67
2022/01/22 10:46:52;;;;;;;17.83;7.72;;;;;;;6.42;82.79;103411.25;5006165;28;20136;-66
2022/01/22 10:49:26;;;;;;;17.85;7.57;;;;;;;6.40;82.64;103407.72;5013610;28;20085;-66
2022/01/22 10:51:56;;;;;;;21.00;7.97;;;;;;;6.37;82.67;103400.66;5004485;28;20046;-66
2022/01/22 10:54:30;;;;;;;19.63;8.35;;;;;;;6.36;82.78;103399.78;5008192;28;20049;-71
2022/01/22 10:57:20;;;;;;;20.15;8.50;;;;;;;6.36;82.87;103405.03;5011118;28;20055;-69
2022/01/22 10:59:56;;;;;;;19.67;8.82;;;;;;;6.36;82.82;103398.88;5007351;28;20046;-67
2022/01/22 11:02:49;;;;;;;17.90;7.90;;;;;;;6.37;82.66;103392.78;5023826;28;20140;-67
2022/01/22 11:05:37;;;;;;;16.55;7.15;;;;;;;6.37;82.67;103395.41;5015809;28;20058;-71
2022/01/22 11:08:14;;;;;;;18.85;6.63;;;;;;;6.39;82.58;103388.50;5013020;28;20129;-71
2022/01/22 11:10:44;;;;;;;18.88;6.50;;;;;;;6.37;82.56;103392.78;5017184;28;20046;-67
2022/01/22 11:13:13;;;;;;;13.50;6.30;;;;;;;6.40;82.48;103395.50;5014979;28;20097;-69
2022/01/22 11:15:41;;;;;;;12.65;6.55;;;;;;;6.37;82.62;103390.16;5029012;28;20088;-68
2022/01/22 11:18:11;;;;;;;13.25;6.00;;;;;;;6.38;82.65;103384.09;5013505;28;20093;-67
2022/01/22 11:20:39;;;;;;;11.90;5.70;;;;;;;6.40;82.69;103390.25;5014700;28;20046;-71
2022/01/22 11:23:08;;;;;;;11.60;6.20;;;;;;;6.44;82.34;103394.75;5009114;28;20144;-70
2022/01/22 11:25:36;;;;;;;11.77;5.03;;;;;;;6.47;82.27;103392.19;5014133;28;20046;-69
2022/01/22 11:28:05;;;;;;;10.45;4.32;;;;;;;6.49;81.98;103393.13;5010647;28;20489;-69
2022/01/22 11:30:34;;;;;;;8.38;3.72;;;;;;;6.50;81.69;103379.19;5013122;28;20039;-71
2022/01/22 11:33:12;;;;;;;7.60;3.05;;;;;;;6.56;81.17;103380.22;5013886;28;20992;-68
2022/01/22 11:35:55;;;;;;;5.45;2.63;;;;;;;6.57;80.92;103380.25;5013389;28;20046;-71
2022/01/22 11:38:52;;;;;;;6.25;3.15;;;;;;;6.57;81.09;103380.25;5014791;28;20046;-71
2022/01/22 11:41:21;;;;;;;6.57;2.83;;;;;;;6.52;81.23;103385.38;5015381;28;20637;-72
2022/01/22 11:46:51;;;;;;;7.43;3.25;;;;;;;6.49;81.74;103382.66;5012577;28;20043;-72
2022/01/22 11:49:26;;;;;;;9.93;3.40;;;;;;;6.47;81.58;103391.31;5006847;28;20034;-72
2022/01/22 11:52:13;;;;;;;7.65;3.35;;;;;;;6.47;81.86;103388.72;5011337;28;20417;-72
2022/01/22 11:55:09;;;;;;;10.50;3.58;;;;;;;6.44;82.03;103400.00;5003904;28;20080;-69
2022/01/22 11:57:37;;;;;;;10.48;3.67;;;;;;;6.44;82.26;103400.00;5011560;28;20055;-69
2022/01/22 12:00:29;;;;;;;8.25;3.22;;;;;;;6.44;82.01;103400.00;5009383;28;20052;-69
2022/01/22 12:03:08;;;;;;;8.63;4.05;;;;;;;6.42;82.46;103395.53;5006300;28;20093;-68
2022/01/22 12:05:56;;;;;;;12.38;4.15;;;;;;;6.40;82.34;103395.50;5011479;28;20034;-69
2022/01/22 12:08:24;;;;;;;11.00;4.00;;;;;;;6.40;82.58;103390.25;5011778;28;20039;-74
2022/01/22 12:16:42;;;;;;;23.25;4.72;;;;;;;6.43;82.23;103390.34;5013200;28;20110;-67
2022/01/22 12:19:48;;;;;;;10.57;4.40;;;;;;;6.42;82.57;103383.34;5010042;28;20038;-67
2022/01/22 12:22:34;;;;;;;12.00;5.85;;;;;;;6.40;82.77;103386.78;5004373;28;20121;-68
2022/01/22 12:25:07;;;;;;;10.30;5.50;;;;;;;6.40;82.56;103389.41;5015360;28;20090;-67
2022/01/22 12:27:47;;;;;;;14.15;4.80;;;;;;;6.40;82.42;103392.00;5018102;28;20047;-67
2022/01/22 12:30:43;;;;;;;14.27;6.57;;;;;;;6.37;82.42;103390.16;5006122;28;20057;-72
2022/01/22 12:33:15;;;;;;;9.75;5.05;;;;;;;6.39;82.38;103383.25;5008934;28;20929;-69
2022/01/22 12:35:44;;;;;;;16.52;5.55;;;;;;;6.39;82.44;103385.00;5014602;28;20046;-69
2022/01/22 12:38:22;;;;;;;11.05;6.25;;;;;;;6.39;82.17;103385.00;5013022;28;20121;-71
2022/01/22 12:40:55;;;;;;;13.50;6.40;;;;;;;6.39;82.12;103385.88;5028439;28;20050;-69
2022/01/22 12:43:34;;;;;;;17.95;7.15;;;;;;;6.36;82.12;103388.38;5011885;28;20046;-68
2022/01/22 12:46:04;;;;;;;14.65;7.13;;;;;;;6.36;82.32;103391.91;5009882;28;20050;-67
2022/01/22 12:48:38;;;;;;;10.75;6.00;;;;;;;6.36;82.37;103388.38;5009555;28;20050;-69
2022/01/22 12:51:09;;;;;;;16.63;6.80;;;;;;;6.35;82.66;103389.25;5011493;28;20046;-72
2022/01/22 12:53:41;;;;;;;11.65;5.63;;;;;;;6.34;82.90;103395.34;5009396;28;20122;-69
2022/01/22 12:58:44;;;;;;;15.10;7.45;;;;;;;6.36;83.05;103391.00;5003770;28;20159;-70
2022/01/22 13:01:24;;;;;;;20.33;8.27;;;;;;;6.36;83.23;103388.38;5015655;28;20041;-68
2022/01/22 13:03:55;;;;;;;13.20;7.45;;;;;;;6.38;82.93;103394.56;5009617;28;20038;-66
2022/01/22 13:06:26;;;;;;;13.98;6.50;;;;;;;6.39;83.08;103393.72;5013954;28;20065;-67
2022/01/22 13:09:14;;;;;;;11.90;6.38;;;;;;;6.41;82.56;103396.41;5004097;28;20074;-67
2022/01/22 13:11:47;;;;;;;10.93;6.28;;;;;;;6.44;82.56;103402.63;5018770;28;20125;-68
2022/01/22 13:14:32;;;;;;;14.90;6.50;;;;;;;6.44;82.64;103393.84;4997585;28;20513;-68
2022/01/22 13:16:59;;;;;;;11.60;6.47;;;;;;;6.45;82.80;103396.53;5003293;28;20046;-70
2022/01/22 13:19:30;;;;;;;14.68;6.70;;;;;;;6.47;82.74;103394.81;5002526;28;20038;-68
2022/01/22 13:22:01;;;;;;;13.13;6.45;;;;;;;6.49;82.77;103397.50;5009218;28;20046;-69
2022/01/22 13:24:31;;;;;;;11.90;6.30;;;;;;;6.50;82.69;103399.28;5010727;28;20043;-67
2022/01/22 13:27:13;;;;;;;16.35;7.43;;;;;;;6.49;82.77;103393.13;5010678;28;20070;-70
2022/01/22 13:29:53;;;;;;;15.95;8.20;;;;;;;6.47;82.90;103386.09;5010363;28;20050;-70
2022/01/22 13:49:41;;;;;;;13.38;5.60;;;;;;;6.42;84.06;103392.91;5008201;28;20133;-68
2022/01/22 13:52:18;;;;;;;15.48;5.80;;;;;;;6.39;84.23;103391.09;4990539;28;20050;-68
2022/01/22 13:54:49;;;;;;;15.07;6.50;;;;;;;6.39;84.43;103390.22;5017078;28;20510;-69
2022/01/22 13:57:21;;;;;;;13.10;6.72;;;;;;;6.39;84.34;103390.22;5005804;28;20125;-71
2022/01/22 13:59:53;;;;;;;11.73;6.70;;;;;;;6.39;84.57;103387.63;5003106;28;20124;-68
2022/01/22 14:03:03;;;;;;;13.60;6.72;;;;;;;6.39;84.61;103383.25;5007880;28;20046;-68